createdAt,value
2018-10-12T00:00:38.579Z,10.20
2018-10-12T00:05:43.703Z,10.20
2018-10-12T00:10:47.938Z,10.30
2018-10-12T00:15:52.190Z,10.30
2018-10-12T00:20:57.584Z,10.30
2018-10-12T00:26:02.035Z,10.30
2018-10-12T00:31:06.181Z,10.40
2018-10-12T00:36:10.880Z,10.60
2018-10-12T00:41:16.223Z,10.70
2018-10-12T00:46:20.494Z,10.80
2018-10-12T00:51:25.178Z,10.90
2018-10-12T00:56:29.594Z,10.90
2018-10-12T01:01:33.755Z,10.90
2018-10-12T01:06:38.632Z,11.10
2018-10-12T01:11:42.913Z,11.10
2018-10-12T01:16:47.176Z,11.10
2018-10-12T01:21:51.583Z,11.10
2018-10-12T01:26:56.289Z,10.90
2018-10-12T01:32:02.180Z,10.80
2018-10-12T01:37:06.295Z,10.70
2018-10-12T01:42:11.273Z,10.50
2018-10-12T01:47:15.918Z,10.50
2018-10-12T01:52:20.632Z,10.40
2018-10-12T01:57:25.939Z,10.30
2018-10-12T02:02:30.390Z,10.20
2018-10-12T02:07:34.503Z,10.10
2018-10-12T02:12:38.706Z,10.00
2018-10-12T02:17:42.799Z,10.00
2018-10-12T02:22:47.974Z,10.00
2018-10-12T02:27:52.908Z,10.10
2018-10-12T02:32:56.980Z,10.30
2018-10-12T02:38:01.171Z,10.30
2018-10-12T02:43:05.928Z,10.30
2018-10-12T02:48:10.302Z,10.30
2018-10-12T02:53:15.474Z,10.20
2018-10-12T02:58:19.867Z,10.10
2018-10-12T03:03:25.204Z,10.10
2018-10-12T03:08:29.721Z,10.20
2018-10-12T03:13:33.952Z,10.20
2018-10-12T03:18:38.204Z,10.20
2018-10-12T03:23:42.424Z,10.20
2018-10-12T03:28:47.622Z,10.10
2018-10-12T03:33:52.015Z,10.00
2018-10-12T03:38:56.726Z,10.00
2018-10-12T03:44:01.526Z,9.90
2018-10-12T03:49:06.316Z,9.70
2018-10-12T03:54:10.606Z,9.60
2018-10-12T03:59:15.073Z,9.50
2018-10-12T04:04:20.160Z,9.40
2018-10-12T04:09:25.057Z,9.20
2018-10-12T04:14:29.326Z,9.10
2018-10-12T04:19:33.437Z,9.00
2018-10-12T04:24:37.630Z,9.00
2018-10-12T04:29:42.780Z,9.00
2018-10-12T04:34:48.228Z,9.00
2018-10-12T04:39:59.817Z,9.00
2018-10-12T04:45:04.815Z,8.90
2018-10-12T04:50:09.065Z,8.90
2018-10-12T04:55:13.489Z,8.90
2018-10-12T05:00:17.659Z,8.90
2018-10-12T05:05:22.357Z,8.90
2018-10-12T05:10:28.501Z,8.90
2018-10-12T05:15:32.731Z,8.80
2018-10-12T05:20:37.218Z,8.80
2018-10-12T05:25:42.232Z,8.80
2018-10-12T05:30:47.092Z,8.90
2018-10-12T05:35:51.706Z,8.80
2018-10-12T05:40:56.965Z,8.80
2018-10-12T05:46:01.377Z,8.80
2018-10-12T05:51:06.148Z,8.70
2018-10-12T05:56:11.702Z,8.70
2018-10-12T06:01:16.349Z,8.80
2018-10-12T06:06:21.586Z,8.90
2018-10-12T06:11:26.011Z,9.10
2018-10-12T06:22:14.081Z,9.20
2018-10-12T06:27:19.185Z,11.60
2018-10-12T06:32:23.300Z,15.00
2018-10-12T06:37:28.681Z,17.90
2018-10-12T06:42:33.128Z,20.30
2018-10-12T06:47:37.644Z,22.00
2018-10-12T06:52:42.067Z,23.60
2018-10-12T06:57:46.208Z,25.10
2018-10-12T07:02:51.040Z,26.00
2018-10-12T07:07:55.544Z,26.70
2018-10-12T07:13:00.306Z,27.30
2018-10-12T07:18:04.416Z,27.90
2018-10-12T07:23:08.927Z,28.30
2018-10-12T07:28:13.799Z,28.20
2018-10-12T07:33:17.945Z,27.90
2018-10-12T07:38:22.070Z,27.80
2018-10-12T07:43:26.362Z,27.60
2018-10-12T07:48:30.692Z,27.40
2018-10-12T07:53:35.148Z,28.20
2018-10-12T07:58:39.578Z,29.10
2018-10-12T08:03:43.924Z,29.50
2018-10-12T08:08:48.042Z,29.10
2018-10-12T08:13:53.091Z,29.40
2018-10-12T08:18:57.740Z,29.40
2018-10-12T08:24:02.222Z,29.70
2018-10-12T08:29:06.300Z,28.90
2018-10-12T08:34:10.681Z,29.20
2018-10-12T08:39:15.055Z,28.80
2018-10-12T08:44:19.523Z,29.70
2018-10-12T08:49:23.704Z,30.30
2018-10-12T08:54:28.296Z,30.60
2018-10-12T08:59:32.898Z,30.80
2018-10-12T09:04:37.198Z,31.20
2018-10-12T09:09:41.505Z,31.00
2018-10-12T09:14:45.652Z,30.10
2018-10-12T09:19:50.332Z,30.60
2018-10-12T09:24:54.530Z,29.90
2018-10-12T09:29:59.073Z,30.50
2018-10-12T09:35:03.596Z,29.70
2018-10-12T09:40:07.347Z,29.80
2018-10-12T09:45:11.434Z,29.70
2018-10-12T09:50:16.138Z,28.10
2018-10-12T09:55:20.403Z,27.00
2018-10-12T10:00:29.924Z,26.20
2018-10-12T10:05:34.068Z,24.80
2018-10-12T10:10:38.303Z,24.50
2018-10-12T10:15:42.673Z,24.30
2018-10-12T10:20:46.972Z,24.10
2018-10-12T10:25:52.148Z,24.40
2018-10-12T10:30:56.309Z,24.60
2018-10-12T10:36:00.682Z,24.90
2018-10-12T10:41:05.312Z,25.30
2018-10-12T10:46:10.146Z,25.40
2018-10-12T10:51:14.705Z,25.40
2018-10-12T10:56:18.945Z,25.50
2018-10-12T11:01:23.581Z,25.60
2018-10-12T11:06:28.158Z,25.30
2018-10-12T11:11:32.563Z,25.20
2018-10-12T11:16:36.727Z,25.30
2018-10-12T11:21:40.806Z,25.50
2018-10-12T11:26:45.502Z,25.40
2018-10-12T11:31:50.100Z,25.40
2018-10-12T11:36:54.484Z,25.70
2018-10-12T11:41:59.270Z,26.20
2018-10-12T11:47:04.293Z,26.30
2018-10-12T11:52:09.103Z,26.20
2018-10-12T11:57:13.312Z,26.10
2018-10-12T12:02:17.569Z,26.40
2018-10-12T12:07:21.880Z,26.30
2018-10-12T12:12:26.902Z,26.40
2018-10-12T12:17:31.597Z,26.50
2018-10-12T12:22:35.744Z,26.60
2018-10-12T12:27:40.059Z,26.70
2018-10-12T12:32:44.221Z,26.70
2018-10-12T12:37:48.876Z,26.40
2018-10-12T12:42:54.046Z,26.50
2018-10-12T12:47:58.357Z,26.60
2018-10-12T12:53:02.470Z,26.40
2018-10-12T12:58:06.764Z,26.40
2018-10-12T13:03:12.642Z,26.40
2018-10-12T13:08:17.207Z,26.30
2018-10-12T13:13:21.980Z,26.30
2018-10-12T13:18:26.097Z,26.30
2018-10-12T13:23:30.862Z,26.10
2018-10-12T13:28:36.331Z,26.30
2018-10-12T13:33:40.466Z,26.50
2018-10-12T13:38:44.934Z,26.50
2018-10-12T13:43:50.583Z,26.40
2018-10-12T13:48:55.166Z,26.40
2018-10-12T13:53:59.338Z,26.30
2018-10-12T13:59:03.828Z,26.20
2018-10-12T14:04:08.238Z,26.10
2018-10-12T14:09:12.781Z,25.90
2018-10-12T14:14:17.437Z,25.80
2018-10-12T14:19:21.899Z,25.70
2018-10-12T14:24:25.918Z,25.60
2018-10-12T14:29:30.285Z,25.50
2018-10-12T14:34:34.728Z,25.50
2018-10-12T14:39:38.979Z,25.30
2018-10-12T14:44:43.306Z,25.20
2018-10-12T14:49:47.484Z,25.10
2018-10-12T14:54:51.915Z,25.00
2018-10-12T14:59:56.171Z,24.80
2018-10-12T15:05:01.227Z,24.40
2018-10-12T15:10:05.518Z,24.20
2018-10-12T15:15:16.930Z,24.10
2018-10-12T15:20:24.298Z,24.00
2018-10-12T15:25:28.601Z,23.80
2018-10-12T15:30:33.315Z,23.90
2018-10-12T15:35:37.831Z,24.00
2018-10-12T15:40:42.156Z,23.60
2018-10-12T15:45:49.306Z,23.10
2018-10-12T15:50:54.438Z,22.70
2018-10-12T15:55:58.784Z,22.30
2018-10-12T16:01:02.945Z,22.00
2018-10-12T16:06:08.366Z,21.80
2018-10-12T16:11:12.918Z,21.70
2018-10-12T16:16:17.317Z,21.40
2018-10-12T16:21:21.431Z,21.10
2018-10-12T16:26:25.566Z,20.60
2018-10-12T16:31:30.058Z,20.10
2018-10-12T16:36:36.363Z,19.60
2018-10-12T16:42:20.626Z,19.20
2018-10-12T16:47:25.639Z,18.90
2018-10-12T16:52:30.333Z,18.50
2018-10-12T16:57:36.218Z,18.10
2018-10-12T17:02:40.783Z,17.80
2018-10-12T17:07:45.230Z,17.50
2018-10-12T17:12:50.372Z,17.20
2018-10-12T17:17:55.666Z,16.90
2018-10-12T17:23:00.188Z,16.60
2018-10-12T17:28:04.633Z,16.40
2018-10-12T17:33:11.294Z,16.20
2018-10-12T17:38:17.319Z,16.00
2018-10-12T17:43:22.652Z,15.90
2018-10-12T17:48:26.987Z,15.70
2018-10-12T17:53:31.844Z,15.50
2018-10-12T17:58:36.280Z,15.30
2018-10-12T18:03:41.229Z,15.10
2018-10-12T18:08:45.964Z,15.00
2018-10-12T18:13:50.727Z,14.80
2018-10-12T18:18:55.164Z,14.70
2018-10-12T18:23:59.912Z,14.60
2018-10-12T18:29:04.839Z,14.50
2018-10-12T18:34:09.518Z,14.40
2018-10-12T18:39:13.988Z,14.40
2018-10-12T18:44:18.883Z,14.20
2018-10-12T18:49:23.587Z,13.90
2018-10-12T18:54:28.044Z,13.80
2018-10-12T18:59:33.522Z,13.60
2018-10-12T19:04:38.145Z,13.60
2018-10-12T19:09:42.232Z,13.60
2018-10-12T19:14:46.784Z,13.60
2018-10-12T19:19:51.340Z,13.50
2018-10-12T19:24:55.999Z,13.50
2018-10-12T19:30:00.293Z,13.40
2018-10-12T19:35:04.567Z,13.30
2018-10-12T19:40:09.821Z,13.20
2018-10-12T19:45:14.466Z,13.20
2018-10-12T19:50:19.344Z,13.10
2018-10-12T19:55:23.723Z,13.00
2018-10-12T20:00:27.930Z,12.90
2018-10-12T20:05:32.078Z,12.90
2018-10-12T20:10:36.970Z,12.80
2018-10-12T20:15:41.261Z,12.90
2018-10-12T20:20:45.511Z,13.00
2018-10-12T20:25:50.457Z,13.00
2018-10-12T20:30:54.982Z,12.90
2018-10-12T20:35:59.567Z,12.80
2018-10-12T20:41:03.769Z,12.60
2018-10-12T20:46:07.991Z,12.50
2018-10-12T20:51:12.937Z,12.30
2018-10-12T20:56:17.802Z,12.40
2018-10-12T21:01:22.502Z,12.50
2018-10-12T21:06:26.825Z,12.40
2018-10-12T21:11:31.576Z,12.30
2018-10-12T21:16:35.901Z,12.20
2018-10-12T21:21:40.395Z,12.10
2018-10-12T21:26:45.194Z,12.00
2018-10-12T21:31:50.728Z,11.90
2018-10-12T21:36:56.330Z,11.90
2018-10-12T21:42:00.511Z,11.80
2018-10-12T21:47:04.634Z,11.70
2018-10-12T21:52:09.720Z,11.70
2018-10-12T21:57:14.736Z,11.60
2018-10-12T22:02:19.282Z,11.60
2018-10-12T22:07:23.860Z,11.50
2018-10-12T22:12:28.552Z,11.40
2018-10-12T22:17:32.842Z,11.40
2018-10-12T22:22:37.842Z,11.30
2018-10-12T22:27:42.247Z,11.30
2018-10-12T22:32:47.915Z,11.30
2018-10-12T22:37:53.135Z,11.20
2018-10-12T22:42:57.475Z,11.20
2018-10-12T22:48:01.974Z,11.10
2018-10-12T22:53:06.777Z,11.10
2018-10-12T22:58:13.135Z,11.00
2018-10-12T23:03:18.460Z,10.90
2018-10-12T23:08:23.308Z,10.90
2018-10-12T23:13:27.596Z,10.70
2018-10-12T23:18:32.527Z,10.60
2018-10-12T23:23:37.017Z,10.40
2018-10-12T23:28:42.183Z,10.30
2018-10-12T23:33:57.498Z,10.30
2018-10-12T23:39:02.798Z,10.20
2018-10-12T23:44:07.465Z,10.20
2018-10-12T23:49:12.803Z,10.10
2018-10-12T23:54:17.644Z,10.00
2018-10-12T23:59:22.909Z,9.90
